sensor_id;sensor_type;location;lat;lon;timestamp;pressure;altitude;pressure_sealevel;temperature;humidity
68594;BME280;55563;52.416;13.548;2023-05-16T00:00:54;100440.28;;;13.64;100.00
68594;BME280;55563;52.416;13.548;2023-05-16T00:02:57;100443.44;;;13.66;100.00
68594;BME280;55563;52.416;13.548;2023-05-16T00:04:58;100443.66;;;13.70;100.00
68594;BME280;55563;52.416;13.548;2023-05-16T00:06:59;100443.44;;;13.66;100.00
68594;BME280;55563;52.416;13.548;2023-05-16T00:09:00;100439.72;;;13.67;100.00
68594;BME280;55563;52.416;13.548;2023-05-16T00:11:01;100446.09;;;13.66;100.00
68594;BME280;55563;52.416;13.548;2023-05-16T00:13:05;100451.91;;;13.63;100.00
68594;BME280;55563;52.416;13.548;2023-05-16T00:15:06;100450.34;;;13.62;100.00
68594;BME280;55563;52.416;13.548;2023-05-16T00:17:12;100442.41;;;13.62;100.00
68594;BME280;55563;52.416;13.548;2023-05-16T00:19:16;100445.63;;;13.59;100.00
68594;BME280;55563;52.416;13.548;2023-05-16T00:21:17;100444.00;;;13.63;100.00
68594;BME280;55563;52.416;13.548;2023-05-16T00:23:19;100441.94;;;13.60;100.00
68594;BME280;55563;52.416;13.548;2023-05-16T00:25:22;100443.50;;;13.61;100.00
68594;BME280;55563;52.416;13.548;2023-05-16T00:27:28;100447.00;;;13.57;100.00
68594;BME280;55563;52.416;13.548;2023-05-16T00:29:30;100445.63;;;13.59;100.00
68594;BME280;55563;52.416;13.548;2023-05-16T00:31:37;100448.84;;;13.56;100.00
68594;BME280;55563;52.416;13.548;2023-05-16T00:33:38;100452.75;;;13.59;100.00
68594;BME280;55563;52.416;13.548;2023-05-16T00:35:49;100445.63;;;13.59;100.00
68594;BME280;55563;52.416;13.548;2023-05-16T00:37:54;100457.50;;;13.62;100.00
68594;BME280;55563;52.416;13.548;2023-05-16T00:39:57;100450.91;;;13.59;100.00
68594;BME280;55563;52.416;13.548;2023-05-16T00:42:01;100451.50;;;13.56;100.00
68594;BME280;55563;52.416;13.548;2023-05-16T00:44:10;100452.56;;;13.55;100.00
68594;BME280;55563;52.416;13.548;2023-05-16T00:46:17;100465.25;;;13.53;100.00
68594;BME280;55563;52.416;13.548;2023-05-16T00:48:19;100459.97;;;13.53;100.00
68594;BME280;55563;52.416;13.548;2023-05-16T00:50:23;100466.59;;;13.50;100.00
68594;BME280;55563;52.416;13.548;2023-05-16T00:52:25;100468.44;;;13.50;100.00
68594;BME280;55563;52.416;13.548;2023-05-16T00:54:29;100475.09;;;13.47;100.00
68594;BME280;55563;52.416;13.548;2023-05-16T00:56:32;100465.59;;;13.46;100.00
68594;BME280;55563;52.416;13.548;2023-05-16T00:58:36;100476.44;;;13.45;100.00
68594;BME280;55563;52.416;13.548;2023-05-16T01:00:39;100469.09;;;13.42;100.00
68594;BME280;55563;52.416;13.548;2023-05-16T01:03:14;100478.06;;;13.41;100.00
68594;BME280;55563;52.416;13.548;2023-05-16T01:08:11;100483.97;;;13.33;100.00
68594;BME280;55563;52.416;13.548;2023-05-16T01:15:07;100493.22;;;13.30;100.00
68594;BME280;55563;52.416;13.548;2023-05-16T01:22:09;100507.59;;;13.14;100.00
68594;BME280;55563;52.416;13.548;2023-05-16T01:24:32;100515.84;;;13.07;100.00
68594;BME280;55563;52.416;13.548;2023-05-16T01:26:34;100518.72;;;13.11;100.00
68594;BME280;55563;52.416;13.548;2023-05-16T01:28:35;100521.94;;;13.03;100.00
68594;BME280;55563;52.416;13.548;2023-05-16T01:30:39;100517.47;;;13.03;100.00
68594;BME280;55563;52.416;13.548;2023-05-16T01:32:42;100522.22;;;13.01;100.00
68594;BME280;55563;52.416;13.548;2023-05-16T01:34:43;100526.13;;;13.09;100.00
68594;BME280;55563;52.416;13.548;2023-05-16T01:37:23;100535.94;;;13.03;100.00
68594;BME280;55563;52.416;13.548;2023-05-16T01:39:29;100534.66;;;12.96;100.00
68594;BME280;55563;52.416;13.548;2023-05-16T01:41:40;100535.22;;;12.93;100.00
68594;BME280;55563;52.416;13.548;2023-05-16T01:43:45;100534.69;;;12.91;100.00
68594;BME280;55563;52.416;13.548;2023-05-16T01:45:52;100542.94;;;12.84;100.00
68594;BME280;55563;52.416;13.548;2023-05-16T01:48:00;100541.59;;;12.87;100.00
68594;BME280;55563;52.416;13.548;2023-05-16T01:50:09;100551.69;;;12.80;100.00
68594;BME280;55563;52.416;13.548;2023-05-16T01:52:19;100555.63;;;12.77;100.00
68594;BME280;55563;52.416;13.548;2023-05-16T01:54:24;100560.38;;;12.80;100.00
68594;BME280;55563;52.416;13.548;2023-05-16T01:56:26;100563.25;;;12.84;100.00
68594;BME280;55563;52.416;13.548;2023-05-16T01:58:32;100563.06;;;12.75;100.00
68594;BME280;55563;52.416;13.548;2023-05-16T02:00:33;100561.22;;;12.71;100.00
68594;BME280;55563;52.416;13.548;2023-05-16T02:02:34;100567.28;;;12.71;100.00
68594;BME280;55563;52.416;13.548;2023-05-16T02:04:35;100575.75;;;12.68;100.00
68594;BME280;55563;52.416;13.548;2023-05-16T02:06:35;100571.53;;;12.62;100.00
68594;BME280;55563;52.416;13.548;2023-05-16T02:08:36;100563.41;;;12.58;100.00
68594;BME280;55563;52.416;13.548;2023-05-16T02:10:37;100570.28;;;12.54;100.00
68594;BME280;55563;52.416;13.548;2023-05-16T02:12:39;100574.59;;;12.40;100.00
68594;BME280;55563;52.416;13.548;2023-05-16T02:14:39;100576.41;;;12.45;100.00
68594;BME280;55563;52.416;13.548;2023-05-16T02:16:40;100577.19;;;12.45;100.00
68594;BME280;55563;52.416;13.548;2023-05-16T02:18:41;100578.25;;;12.44;100.00
68594;BME280;55563;52.416;13.548;2023-05-16T02:20:42;100593.81;;;12.46;100.00
68594;BME280;55563;52.416;13.548;2023-05-16T02:22:43;100595.94;;;12.39;100.00
68594;BME280;55563;52.416;13.548;2023-05-16T02:24:46;100596.97;;;12.38;100.00
68594;BME280;55563;52.416;13.548;2023-05-16T02:26:47;100605.44;;;12.35;100.00
68594;BME280;55563;52.416;13.548;2023-05-16T02:28:47;100603.88;;;12.29;100.00
68594;BME280;55563;52.416;13.548;2023-05-16T02:30:57;100611.28;;;12.21;100.00
68594;BME280;55563;52.416;13.548;2023-05-16T02:32:58;100610.25;;;12.17;100.00
68594;BME280;55563;52.416;13.548;2023-05-16T02:34:59;100611.88;;;12.08;100.00
68594;BME280;55563;52.416;13.548;2023-05-16T02:36:59;100603.47;;;11.96;100.00
68594;BME280;55563;52.416;13.548;2023-05-16T02:39:00;100612.94;;;12.02;100.00
68594;BME280;55563;52.416;13.548;2023-05-16T02:41:01;100616.38;;;11.98;100.00
68594;BME280;55563;52.416;13.548;2023-05-16T02:43:02;100618.22;;;11.92;100.00
68594;BME280;55563;52.416;13.548;2023-05-16T02:45:03;100622.97;;;11.85;100.00
68594;BME280;55563;52.416;13.548;2023-05-16T02:47:04;100622.44;;;11.93;100.00
68594;BME280;55563;52.416;13.548;2023-05-16T02:49:05;100625.09;;;11.78;100.00
68594;BME280;55563;52.416;13.548;2023-05-16T02:51:06;100616.91;;;11.85;100.00
68594;BME280;55563;52.416;13.548;2023-05-16T02:53:06;100616.94;;;11.79;100.00
68594;BME280;55563;52.416;13.548;2023-05-16T02:55:07;100623.78;;;11.86;100.00
68594;BME280;55563;52.416;13.548;2023-05-16T02:57:08;100629.59;;;11.77;100.00
68594;BME280;55563;52.416;13.548;2023-05-16T02:59:10;100628.53;;;11.78;100.00
68594;BME280;55563;52.416;13.548;2023-05-16T03:01:11;100624.81;;;11.85;100.00
68594;BME280;55563;52.416;13.548;2023-05-16T03:03:11;100630.38;;;11.78;100.00
68594;BME280;55563;52.416;13.548;2023-05-16T03:05:14;100629.84;;;11.81;100.00
68594;BME280;55563;52.416;13.548;2023-05-16T03:07:15;100631.97;;;11.74;100.00
68594;BME280;55563;52.416;13.548;2023-05-16T03:09:15;100637.47;;;11.77;100.00
68594;BME280;55563;52.416;13.548;2023-05-16T03:11:17;100645.13;;;11.74;100.00
68594;BME280;55563;52.416;13.548;2023-05-16T03:13:20;100641.44;;;11.65;100.00
68594;BME280;55563;52.416;13.548;2023-05-16T03:15:22;100640.63;;;11.59;100.00
68594;BME280;55563;52.416;13.548;2023-05-16T03:17:22;100642.75;;;11.72;100.00
68594;BME280;55563;52.416;13.548;2023-05-16T03:19:25;100651.16;;;11.69;100.00
68594;BME280;55563;52.416;13.548;2023-05-16T03:21:27;100648.56;;;11.79;100.00
68594;BME280;55563;52.416;13.548;2023-05-16T03:23:28;100650.88;;;11.61;100.00
68594;BME280;55563;52.416;13.548;2023-05-16T03:25:29;100652.47;;;11.67;100.00
68594;BME280;55563;52.416;13.548;2023-05-16T03:27:30;100659.09;;;11.74;100.00
68594;BME280;55563;52.416;13.548;2023-05-16T03:29:31;100658.00;;;11.75;100.00
68594;BME280;55563;52.416;13.548;2023-05-16T03:31:31;100668.25;;;11.67;100.00
68594;BME280;55563;52.416;13.548;2023-05-16T03:33:32;100654.84;;;11.68;100.00
68594;BME280;55563;52.416;13.548;2023-05-16T03:35:34;100652.47;;;11.62;100.00
68594;BME280;55563;52.416;13.548;2023-05-16T03:37:35;100653.25;;;11.57;100.00
68594;BME280;55563;52.416;13.548;2023-05-16T03:39:36;100657.47;;;11.58;100.00
68594;BME280;55563;52.416;13.548;2023-05-16T03:41:37;100660.66;;;11.60;100.00
68594;BME280;55563;52.416;13.548;2023-05-16T03:43:37;100658.53;;;11.57;100.00
68594;BME280;55563;52.416;13.548;2023-05-16T03:45:38;100674.84;;;11.59;100.00
68594;BME280;55563;52.416;13.548;2023-05-16T03:47:39;100675.13;;;11.53;100.00
68594;BME280;55563;52.416;13.548;2023-05-16T03:49:40;100678.03;;;11.41;100.00
68594;BME280;55563;52.416;13.548;2023-05-16T03:51:41;100675.13;;;11.53;100.00
68594;BME280;55563;52.416;13.548;2023-05-16T03:53:41;100679.59;;;11.47;100.00
68594;BME280;55563;52.416;13.548;2023-05-16T03:55:42;100690.09;;;11.47;100.00
68594;BME280;55563;52.416;13.548;2023-05-16T03:57:43;100684.34;;;11.45;100.00
68594;BME280;55563;52.416;13.548;2023-05-16T03:59:44;100689.34;;;11.36;100.00
68594;BME280;55563;52.416;13.548;2023-05-16T04:01:46;100689.84;;;11.44;100.00
68594;BME280;55563;52.416;13.548;2023-05-16T04:03:47;100691.16;;;11.26;100.00
68594;BME280;55563;52.416;13.548;2023-05-16T04:05:47;100697.50;;;11.40;100.00
68594;BME280;55563;52.416;13.548;2023-05-16T04:07:48;100698.78;;;11.17;100.00
68594;BME280;55563;52.416;13.548;2023-05-16T04:09:48;100700.91;;;11.30;100.00
68594;BME280;55563;52.416;13.548;2023-05-16T04:11:49;100697.72;;;11.28;100.00
68594;BME280;55563;52.416;13.548;2023-05-16T04:13:49;100710.38;;;11.26;100.00
68594;BME280;55563;52.416;13.548;2023-05-16T04:15:50;100716.13;;;11.23;100.00
68594;BME280;55563;52.416;13.548;2023-05-16T04:17:51;100727.19;;;11.20;100.00
68594;BME280;55563;52.416;13.548;2023-05-16T04:19:52;100722.19;;;11.29;100.00
68594;BME280;55563;52.416;13.548;2023-05-16T04:21:52;100723.78;;;11.25;100.00
68594;BME280;55563;52.416;13.548;2023-05-16T04:23:53;100729.28;;;11.18;100.00
68594;BME280;55563;52.416;13.548;2023-05-16T04:25:54;100732.63;;;10.99;100.00
68594;BME280;55563;52.416;13.548;2023-05-16T04:27:56;100731.09;;;11.08;100.00
68594;BME280;55563;52.416;13.548;2023-05-16T04:29:56;100732.41;;;11.05;100.00
68594;BME280;55563;52.416;13.548;2023-05-16T04:31:59;100740.06;;;11.12;100.00
68594;BME280;55563;52.416;13.548;2023-05-16T04:34:00;100741.91;;;11.11;100.00
68594;BME280;55563;52.416;13.548;2023-05-16T04:36:00;100747.66;;;11.13;100.00
68594;BME280;55563;52.416;13.548;2023-05-16T04:38:01;100745.56;;;11.10;100.00
68594;BME280;55563;52.416;13.548;2023-05-16T04:40:02;100752.38;;;10.96;100.00
68594;BME280;55563;52.416;13.548;2023-05-16T04:42:03;100758.19;;;11.08;100.00
68594;BME280;55563;52.416;13.548;2023-05-16T04:44:03;100754.50;;;11.09;100.00
68594;BME280;55563;52.416;13.548;2023-05-16T04:46:05;100761.56;;;10.99;100.00
68594;BME280;55563;52.416;13.548;2023-05-16T04:48:07;100768.19;;;11.06;100.00
68594;BME280;55563;52.416;13.548;2023-05-16T04:50:08;100769.78;;;11.07;100.00
68594;BME280;55563;52.416;13.548;2023-05-16T04:52:09;100771.31;;;11.03;100.00
68594;BME280;55563;52.416;13.548;2023-05-16T04:54:09;100773.94;;;10.98;100.00
68594;BME280;55563;52.416;13.548;2023-05-16T04:56:11;100776.28;;;10.94;100.00
68594;BME280;55563;52.416;13.548;2023-05-16T04:58:11;100783.59;;;10.82;100.00
68594;BME280;55563;52.416;13.548;2023-05-16T05:00:12;100788.13;;;10.92;100.00
68594;BME280;55563;52.416;13.548;2023-05-16T05:02:13;100795.22;;;10.97;100.00
68594;BME280;55563;52.416;13.548;2023-05-16T05:04:14;100793.34;;;10.87;100.00
68594;BME280;55563;52.416;13.548;2023-05-16T05:06:15;100792.31;;;10.88;100.00
68594;BME280;55563;52.416;13.548;2023-05-16T05:08:17;100793.88;;;10.89;100.00
68594;BME280;55563;52.416;13.548;2023-05-16T05:10:17;100806.75;;;10.85;100.00
68594;BME280;55563;52.416;13.548;2023-05-16T05:12:18;100806.41;;;10.72;100.00
68594;BME280;55563;52.416;13.548;2023-05-16T05:14:19;100817.75;;;10.77;100.00
68594;BME280;55563;52.416;13.548;2023-05-16T05:16:19;100819.81;;;10.75;100.00
68594;BME280;55563;52.416;13.548;2023-05-16T05:18:20;100824.28;;;10.75;100.00
68594;BME280;55563;52.416;13.548;2023-05-16T05:20:21;100826.13;;;10.74;100.00
68594;BME280;55563;52.416;13.548;2023-05-16T05:22:21;100832.72;;;10.77;100.00
68594;BME280;55563;52.416;13.548;2023-05-16T05:24:22;100833.00;;;10.80;100.00
68594;BME280;55563;52.416;13.548;2023-05-16T05:26:22;100833.28;;;10.79;100.00
68594;BME280;55563;52.416;13.548;2023-05-16T05:28:25;100843.03;;;10.83;100.00
68594;BME280;55563;52.416;13.548;2023-05-16T05:30:26;100849.31;;;10.77;100.00
68594;BME280;55563;52.416;13.548;2023-05-16T05:32:26;100849.53;;;10.76;100.00
68594;BME280;55563;52.416;13.548;2023-05-16T05:34:27;100853.75;;;10.77;100.00
68594;BME280;55563;52.416;13.548;2023-05-16T05:36:27;100858.50;;;10.80;100.00
68594;BME280;55563;52.416;13.548;2023-05-16T05:38:28;100857.72;;;10.79;100.00
68594;BME280;55563;52.416;13.548;2023-05-16T05:40:29;100852.47;;;10.84;100.00
68594;BME280;55563;52.416;13.548;2023-05-16T05:42:29;100855.41;;;10.88;100.00
68594;BME280;55563;52.416;13.548;2023-05-16T05:44:30;100858.81;;;10.83;100.00
68594;BME280;55563;52.416;13.548;2023-05-16T05:46:31;100858.53;;;10.85;100.00
68594;BME280;55563;52.416;13.548;2023-05-16T05:48:32;100861.91;;;10.75;100.00
68594;BME280;55563;52.416;13.548;2023-05-16T05:50:32;100868.53;;;10.83;100.00
68594;BME280;55563;52.416;13.548;2023-05-16T05:52:33;100868.56;;;10.88;100.00
68594;BME280;55563;52.416;13.548;2023-05-16T05:54:34;100871.41;;;10.81;100.00
68594;BME280;55563;52.416;13.548;2023-05-16T05:56:34;100864.78;;;10.74;100.00
68594;BME280;55563;52.416;13.548;2023-05-16T05:58:35;100870.84;;;10.79;100.00
68594;BME280;55563;52.416;13.548;2023-05-16T06:00:36;100871.97;;;10.83;100.00
68594;BME280;55563;52.416;13.548;2023-05-16T06:02:36;100858.28;;;10.86;100.00
68594;BME280;55563;52.416;13.548;2023-05-16T06:04:37;100870.59;;;10.81;100.00
68594;BME280;55563;52.416;13.548;2023-05-16T06:06:38;100875.38;;;10.89;100.00
68594;BME280;55563;52.416;13.548;2023-05-16T06:08:40;100873.97;;;10.71;100.00
68594;BME280;55563;52.416;13.548;2023-05-16T06:10:40;100877.22;;;10.83;100.00
68594;BME280;55563;52.416;13.548;2023-05-16T06:12:41;100878.50;;;10.81;100.00
68594;BME280;55563;52.416;13.548;2023-05-16T06:14:41;100875.34;;;10.84;100.00
68594;BME280;55563;52.416;13.548;2023-05-16T06:16:42;100875.09;;;10.85;100.00
68594;BME280;55563;52.416;13.548;2023-05-16T06:18:51;100875.47;;;11.04;100.00
68594;BME280;55563;52.416;13.548;2023-05-16T06:20:52;100867.28;;;10.96;100.00
68594;BME280;55563;52.416;13.548;2023-05-16T06:22:52;100863.38;;;11.03;100.00
68594;BME280;55563;52.416;13.548;2023-05-16T06:24:53;100863.19;;;11.20;100.00
68594;BME280;55563;52.416;13.548;2023-05-16T06:26:54;100873.97;;;11.18;100.00
68594;BME280;55563;52.416;13.548;2023-05-16T06:28:54;100867.66;;;11.19;100.00
68594;BME280;55563;52.416;13.548;2023-05-16T06:30:55;100878.75;;;11.21;100.00
68594;BME280;55563;52.416;13.548;2023-05-16T06:32:55;100882.63;;;11.14;100.00
68594;BME280;55563;52.416;13.548;2023-05-16T06:34:56;100884.00;;;11.21;100.00
68594;BME280;55563;52.416;13.548;2023-05-16T06:36:57;100892.44;;;11.28;100.00
68594;BME280;55563;52.416;13.548;2023-05-16T06:38:58;100889.81;;;11.33;100.00
68594;BME280;55563;52.416;13.548;2023-05-16T06:40:58;100898.53;;;11.39;100.00
68594;BME280;55563;52.416;13.548;2023-05-16T06:42:59;100895.38;;;11.42;100.00
68594;BME280;55563;52.416;13.548;2023-05-16T06:45:00;100893.56;;;11.48;100.00
68594;BME280;55563;52.416;13.548;2023-05-16T06:47:00;100893.53;;;11.37;100.00
68594;BME280;55563;52.416;13.548;2023-05-16T06:49:01;100909.63;;;11.41;100.00
68594;BME280;55563;52.416;13.548;2023-05-16T06:51:01;100901.16;;;11.34;100.00
68594;BME280;55563;52.416;13.548;2023-05-16T06:53:02;100911.09;;;11.22;100.00
68594;BME280;55563;52.416;13.548;2023-05-16T06:55:04;100917.13;;;11.22;100.00
68594;BME280;55563;52.416;13.548;2023-05-16T06:57:05;100920.84;;;11.21;100.00
68594;BME280;55563;52.416;13.548;2023-05-16T06:59:07;100919.28;;;11.25;100.00
68594;BME280;55563;52.416;13.548;2023-05-16T07:01:08;100931.09;;;11.23;100.00
68594;BME280;55563;52.416;13.548;2023-05-16T07:03:09;100931.63;;;11.25;100.00
68594;BME280;55563;52.416;13.548;2023-05-16T07:05:09;100925.88;;;11.33;100.00
68594;BME280;55563;52.416;13.548;2023-05-16T07:07:10;100924.88;;;11.39;100.00
68594;BME280;55563;52.416;13.548;2023-05-16T07:09:11;100930.16;;;11.44;100.00
68594;BME280;55563;52.416;13.548;2023-05-16T07:11:11;100925.94;;;11.43;100.00
68594;BME280;55563;52.416;13.548;2023-05-16T07:13:12;100935.69;;;11.48;100.00
68594;BME280;55563;52.416;13.548;2023-05-16T07:15:13;100937.28;;;11.49;100.00
68594;BME280;55563;52.416;13.548;2023-05-16T07:17:14;100944.38;;;11.48;100.00
68594;BME280;55563;52.416;13.548;2023-05-16T07:19:15;100936.50;;;11.53;100.00
68594;BME280;55563;52.416;13.548;2023-05-16T07:21:16;100939.44;;;11.62;100.00
68594;BME280;55563;52.416;13.548;2023-05-16T07:23:17;100938.88;;;11.50;100.00
68594;BME280;55563;52.416;13.548;2023-05-16T07:25:17;100937.63;;;11.67;100.00
68594;BME280;55563;52.416;13.548;2023-05-16T07:27:18;100940.84;;;11.74;100.00
68594;BME280;55563;52.416;13.548;2023-05-16T07:29:19;100938.97;;;11.70;100.00
68594;BME280;55563;52.416;13.548;2023-05-16T07:31:19;100941.94;;;11.84;100.00
68594;BME280;55563;52.416;13.548;2023-05-16T07:33:20;100935.53;;;11.69;100.00
68594;BME280;55563;52.416;13.548;2023-05-16T07:35:21;100938.75;;;11.82;100.00
68594;BME280;55563;52.416;13.548;2023-05-16T07:37:21;100934.31;;;11.92;100.00
68594;BME280;55563;52.416;13.548;2023-05-16T07:39:22;100947.00;;;12.10;100.00
68594;BME280;55563;52.416;13.548;2023-05-16T07:41:23;100945.94;;;12.11;100.00
68594;BME280;55563;52.416;13.548;2023-05-16T07:43:24;100940.94;;;12.15;100.00
68594;BME280;55563;52.416;13.548;2023-05-16T07:45:25;100945.41;;;12.14;100.00
68594;BME280;55563;52.416;13.548;2023-05-16T07:47:26;100948.31;;;12.23;100.00
68594;BME280;55563;52.416;13.548;2023-05-16T07:49:26;100948.09;;;12.35;100.00
68594;BME280;55563;52.416;13.548;2023-05-16T07:51:27;100950.19;;;12.38;100.00
68594;BME280;55563;52.416;13.548;2023-05-16T07:53:28;100941.22;;;12.39;100.00
68594;BME280;55563;52.416;13.548;2023-05-16T07:55:28;100947.56;;;12.38;100.00
68594;BME280;55563;52.416;13.548;2023-05-16T07:57:29;100947.84;;;12.31;100.00
68594;BME280;55563;52.416;13.548;2023-05-16T07:59:30;100950.44;;;12.26;100.00
68594;BME280;55563;52.416;13.548;2023-05-16T08:01:30;100961.28;;;12.40;100.00
68594;BME280;55563;52.416;13.548;2023-05-16T08:03:31;100965.50;;;12.46;100.00
68594;BME280;55563;52.416;13.548;2023-05-16T08:05:32;100973.41;;;12.41;100.00
68594;BME280;55563;52.416;13.548;2023-05-16T08:07:32;100971.81;;;12.35;100.00
68594;BME280;55563;52.416;13.548;2023-05-16T08:09:33;100975.75;;;12.22;100.00
68594;BME280;55563;52.416;13.548;2023-05-16T08:11:36;100988.97;;;12.37;100.00
68594;BME280;55563;52.416;13.548;2023-05-16T08:13:39;100986.81;;;12.24;100.00
68594;BME280;55563;52.416;13.548;2023-05-16T08:15:39;100988.66;;;12.23;100.00
68594;BME280;55563;52.416;13.548;2023-05-16T08:17:40;100980.72;;;12.13;100.00
68594;BME280;55563;52.416;13.548;2023-05-16T08:19:41;100981.03;;;12.22;100.00
68594;BME280;55563;52.416;13.548;2023-05-16T08:21:42;100984.19;;;12.34;100.00
68594;BME280;55563;52.416;13.548;2023-05-16T08:23:43;100986.84;;;12.39;100.00
68594;BME280;55563;52.416;13.548;2023-05-16T08:25:43;100983.13;;;12.20;100.00
68594;BME280;55563;52.416;13.548;2023-05-16T08:27:45;100985.97;;;12.13;100.00
68594;BME280;55563;52.416;13.548;2023-05-16T08:29:46;100996.31;;;12.30;100.00
68594;BME280;55563;52.416;13.548;2023-05-16T08:31:47;100990.19;;;12.09;100.00
68594;BME280;55563;52.416;13.548;2023-05-16T08:33:47;100993.41;;;12.21;100.00
68594;BME280;55563;52.416;13.548;2023-05-16T08:35:49;100994.97;;;12.12;100.00
68594;BME280;55563;52.416;13.548;2023-05-16T08:37:52;100998.69;;;12.21;100.00
68594;BME280;55563;52.416;13.548;2023-05-16T08:39:52;101007.09;;;12.18;100.00
68594;BME280;55563;52.416;13.548;2023-05-16T08:41:53;101011.03;;;12.11;100.00
68594;BME280;55563;52.416;13.548;2023-05-16T08:43:54;101009.75;;;12.29;100.00
68594;BME280;55563;52.416;13.548;2023-05-16T08:45:54;101003.44;;;12.35;100.00
68594;BME280;55563;52.416;13.548;2023-05-16T08:47:55;101005.00;;;12.26;100.00
68594;BME280;55563;52.416;13.548;2023-05-16T08:49:57;100999.97;;;12.19;100.00
68594;BME280;55563;52.416;13.548;2023-05-16T08:51:58;100995.78;;;12.18;100.00
68594;BME280;55563;52.416;13.548;2023-05-16T08:54:03;101006.06;;;12.24;100.00
68594;BME280;55563;52.416;13.548;2023-05-16T08:56:06;101002.59;;;12.19;100.00
68594;BME280;55563;52.416;13.548;2023-05-16T08:58:07;101001.84;;;12.29;100.00
68594;BME280;55563;52.416;13.548;2023-05-16T09:00:09;100993.38;;;12.11;100.00
68594;BME280;55563;52.416;13.548;2023-05-16T09:02:11;101007.63;;;12.20;100.00
68594;BME280;55563;52.416;13.548;2023-05-16T09:04:12;101008.88;;;11.98;100.00
68594;BME280;55563;52.416;13.548;2023-05-16T09:06:13;101012.59;;;12.07;100.00
68594;BME280;55563;52.416;13.548;2023-05-16T09:08:14;101016.28;;;12.11;100.00
68594;BME280;55563;52.416;13.548;2023-05-16T09:10:15;101020.75;;;12.05;100.00
68594;BME280;55563;52.416;13.548;2023-05-16T09:12:15;101022.22;;;11.81;100.00
68594;BME280;55563;52.416;13.548;2023-05-16T09:14:16;101034.44;;;11.97;100.00
68594;BME280;55563;52.416;13.548;2023-05-16T09:16:18;101033.38;;;11.98;100.00
68594;BME280;55563;52.416;13.548;2023-05-16T09:18:20;101029.50;;;12.21;100.00
68594;BME280;55563;52.416;13.548;2023-05-16T09:20:21;101030.59;;;12.30;100.00
68594;BME280;55563;52.416;13.548;2023-05-16T09:22:22;101022.13;;;12.28;100.00
68594;BME280;55563;52.416;13.548;2023-05-16T09:24:24;101031.31;;;12.15;100.00
68594;BME280;55563;52.416;13.548;2023-05-16T09:26:25;101026.63;;;12.33;100.00
68594;BME280;55563;52.416;13.548;2023-05-16T09:28:26;101026.63;;;12.28;100.00
68594;BME280;55563;52.416;13.548;2023-05-16T09:30:28;101029.25;;;12.33;100.00
68594;BME280;55563;52.416;13.548;2023-05-16T09:32:30;101022.69;;;12.35;100.00
68594;BME280;55563;52.416;13.548;2023-05-16T09:34:30;101021.38;;;12.43;100.00
68594;BME280;55563;52.416;13.548;2023-05-16T09:36:31;101020.06;;;12.45;100.00
68594;BME280;55563;52.416;13.548;2023-05-16T09:38:32;101028.78;;;12.51;100.00
68594;BME280;55563;52.416;13.548;2023-05-16T09:40:33;101034.31;;;12.44;100.00
68594;BME280;55563;52.416;13.548;2023-05-16T09:42:34;101030.88;;;12.49;100.00
68594;BME280;55563;52.416;13.548;2023-05-16T09:44:35;101039.34;;;12.56;100.00
68594;BME280;55563;52.416;13.548;2023-05-16T09:46:37;101041.19;;;12.55;100.00
68594;BME280;55563;52.416;13.548;2023-05-16T09:48:40;101033.78;;;12.52;100.00
68594;BME280;55563;52.416;13.548;2023-05-16T09:50:47;101034.59;;;12.53;100.00
68594;BME280;55563;52.416;13.548;2023-05-16T09:52:49;101038.50;;;12.35;100.00
68594;BME280;55563;52.416;13.548;2023-05-16T09:54:50;101034.81;;;12.31;100.00
68594;BME280;55563;52.416;13.548;2023-05-16T09:56:51;101033.53;;;12.54;100.00
68594;BME280;55563;52.416;13.548;2023-05-16T09:58:52;101030.13;;;12.58;100.00
68594;BME280;55563;52.416;13.548;2023-05-16T10:00:54;101026.69;;;12.68;100.00
68594;BME280;55563;52.416;13.548;2023-05-16T10:02:56;101043.81;;;12.45;100.00
68594;BME280;55563;52.416;13.548;2023-05-16T10:04:57;101038.31;;;12.72;100.00
68594;BME280;55563;52.416;13.548;2023-05-16T10:07:01;101032.78;;;12.74;100.00
68594;BME280;55563;52.416;13.548;2023-05-16T10:09:02;101046.22;;;12.72;100.00
68594;BME280;55563;52.416;13.548;2023-05-16T10:11:05;101041.47;;;12.59;100.00
68594;BME280;55563;52.416;13.548;2023-05-16T10:13:06;101040.16;;;12.82;100.00
68594;BME280;55563;52.416;13.548;2023-05-16T10:15:08;101041.47;;;12.74;100.00
68594;BME280;55563;52.416;13.548;2023-05-16T10:17:11;101048.34;;;12.90;100.00
68594;BME280;55563;52.416;13.548;2023-05-16T10:19:16;101043.84;;;12.71;100.00
68594;BME280;55563;52.416;13.548;2023-05-16T10:21:21;101051.50;;;12.77;100.00
68594;BME280;55563;52.416;13.548;2023-05-16T10:23:24;101053.34;;;12.72;100.00
68594;BME280;55563;52.416;13.548;2023-05-16T10:25:28;101049.66;;;12.78;100.00
68594;BME280;55563;52.416;13.548;2023-05-16T10:27:32;101052.81;;;12.75;100.00
68594;BME280;55563;52.416;13.548;2023-05-16T10:29:32;101052.03;;;12.79;100.00
68594;BME280;55563;52.416;13.548;2023-05-16T10:31:33;101054.66;;;12.69;100.00
68594;BME280;55563;52.416;13.548;2023-05-16T10:33:35;101056.25;;;12.70;100.00